sensor_id;sensor_type;location;lat;lon;timestamp;pressure;altitude;pressure_sealevel;temperature;humidity
27613;BME280;15036;48.094;-1.690;2022-07-06T00:02:03;102218.38;;;20.47;58.66
27613;BME280;15036;48.094;-1.690;2022-07-06T00:04:29;102213.38;;;20.92;57.31
27613;BME280;15036;48.094;-1.690;2022-07-06T00:06:54;102215.16;;;20.87;57.28
27613;BME280;15036;48.094;-1.690;2022-07-06T00:09:20;102210.53;;;20.81;57.62
27613;BME280;15036;48.094;-1.690;2022-07-06T00:11:45;102210.84;;;20.72;57.83
27613;BME280;15036;48.094;-1.690;2022-07-06T00:14:11;102212.56;;;20.73;58.09
27613;BME280;15036;48.094;-1.690;2022-07-06T00:16:37;102215.09;;;20.93;57.14
27613;BME280;15036;48.094;-1.690;2022-07-06T00:19:02;102222.41;;;20.69;57.99
27613;BME280;15036;48.094;-1.690;2022-07-06T00:21:28;102220.47;;;20.70;57.99
27613;BME280;15036;48.094;-1.690;2022-07-06T00:23:53;102215.63;;;21.02;56.73
27613;BME280;15036;48.094;-1.690;2022-07-06T00:26:19;102221.69;;;20.74;57.98
27613;BME280;15036;48.094;-1.690;2022-07-06T00:28:44;102228.22;;;21.04;56.81
27613;BME280;15036;48.094;-1.690;2022-07-06T00:31:10;102217.97;;;21.05;56.97
27613;BME280;15036;48.094;-1.690;2022-07-06T00:33:35;102221.41;;;21.00;56.79
27613;BME280;15036;48.094;-1.690;2022-07-06T00:36:01;102209.56;;;21.11;56.54
27613;BME280;15036;48.094;-1.690;2022-07-06T00:38:27;102212.78;;;21.08;56.84
27613;BME280;15036;48.094;-1.690;2022-07-06T00:40:52;102215.78;;;20.89;57.58
27613;BME280;15036;48.094;-1.690;2022-07-06T00:43:17;102216.25;;;20.86;57.38
27613;BME280;15036;48.094;-1.690;2022-07-06T00:45:43;102226.84;;;20.52;57.86
27613;BME280;15036;48.094;-1.690;2022-07-06T00:48:09;102227.19;;;20.99;56.40
27613;BME280;15036;48.094;-1.690;2022-07-06T00:50:35;102223.94;;;20.65;57.09
27613;BME280;15036;48.094;-1.690;2022-07-06T00:53:03;102223.50;;;20.87;56.69
27613;BME280;15036;48.094;-1.690;2022-07-06T00:55:31;102221.19;;;20.65;57.05
27613;BME280;15036;48.094;-1.690;2022-07-06T00:57:57;102228.50;;;20.78;56.69
27613;BME280;15036;48.094;-1.690;2022-07-06T01:00:25;102220.53;;;21.00;55.87
27613;BME280;15036;48.094;-1.690;2022-07-06T01:02:51;102224.50;;;20.92;56.78
27613;BME280;15036;48.094;-1.690;2022-07-06T01:05:18;102217.31;;;20.85;57.37
27613;BME280;15036;48.094;-1.690;2022-07-06T01:07:45;102212.84;;;20.23;59.35
27613;BME280;15036;48.094;-1.690;2022-07-06T01:10:12;102218.88;;;20.13;59.85
27613;BME280;15036;48.094;-1.690;2022-07-06T01:12:40;102212.06;;;20.58;58.91
27613;BME280;15036;48.094;-1.690;2022-07-06T01:15:08;102210.50;;;20.44;59.24
27613;BME280;15036;48.094;-1.690;2022-07-06T01:17:33;102215.53;;;20.54;58.98
27613;BME280;15036;48.094;-1.690;2022-07-06T01:22:33;102216.31;;;20.79;58.35
27613;BME280;15036;48.094;-1.690;2022-07-06T01:24:58;102212.00;;;20.83;57.88
27613;BME280;15036;48.094;-1.690;2022-07-06T01:27:23;102218.53;;;20.70;58.38
27613;BME280;15036;48.094;-1.690;2022-07-06T01:29:49;102221.34;;;20.89;58.19
27613;BME280;15036;48.094;-1.690;2022-07-06T01:32:14;102217.16;;;20.61;58.83
27613;BME280;15036;48.094;-1.690;2022-07-06T01:34:40;102229.56;;;20.34;59.56
27613;BME280;15036;48.094;-1.690;2022-07-06T01:37:06;102210.63;;;20.56;59.18
27613;BME280;15036;48.094;-1.690;2022-07-06T01:39:31;102213.84;;;20.89;57.97
27613;BME280;15036;48.094;-1.690;2022-07-06T01:41:57;102212.25;;;20.82;58.20
27613;BME280;15036;48.094;-1.690;2022-07-06T01:44:22;102213.38;;;20.56;59.18
27613;BME280;15036;48.094;-1.690;2022-07-06T01:46:47;102212.75;;;20.54;59.23
27613;BME280;15036;48.094;-1.690;2022-07-06T01:49:13;102210.38;;;20.57;59.43
27613;BME280;15036;48.094;-1.690;2022-07-06T01:51:38;102206.22;;;20.85;58.34
27613;BME280;15036;48.094;-1.690;2022-07-06T01:54:03;102214.25;;;20.93;58.34
27613;BME280;15036;48.094;-1.690;2022-07-06T01:56:29;102203.13;;;20.74;58.92
27613;BME280;15036;48.094;-1.690;2022-07-06T01:58:54;102204.22;;;20.73;59.04
27613;BME280;15036;48.094;-1.690;2022-07-06T02:01:20;102200.03;;;21.01;58.26
27613;BME280;15036;48.094;-1.690;2022-07-06T02:03:46;102194.13;;;20.97;58.18
27613;BME280;15036;48.094;-1.690;2022-07-06T02:06:12;102198.25;;;20.88;58.51
27613;BME280;15036;48.094;-1.690;2022-07-06T02:08:38;102190.84;;;21.00;58.04
27613;BME280;15036;48.094;-1.690;2022-07-06T02:11:05;102195.50;;;20.88;58.37
27613;BME280;15036;48.094;-1.690;2022-07-06T02:13:31;102192.28;;;21.09;57.85
27613;BME280;15036;48.094;-1.690;2022-07-06T02:15:56;102200.50;;;20.98;58.18
27613;BME280;15036;48.094;-1.690;2022-07-06T02:18:22;102190.34;;;20.92;58.44
27613;BME280;15036;48.094;-1.690;2022-07-06T02:20:47;102199.50;;;20.74;58.84
27613;BME280;15036;48.094;-1.690;2022-07-06T02:23:12;102195.28;;;20.71;59.33
27613;BME280;15036;48.094;-1.690;2022-07-06T02:25:38;102192.94;;;20.87;58.72
27613;BME280;15036;48.094;-1.690;2022-07-06T02:28:04;102205.91;;;20.93;58.48
27613;BME280;15036;48.094;-1.690;2022-07-06T02:30:29;102201.09;;;21.00;58.31
27613;BME280;15036;48.094;-1.690;2022-07-06T02:32:54;102204.97;;;20.99;58.51
27613;BME280;15036;48.094;-1.690;2022-07-06T02:35:20;102203.19;;;20.86;58.45
27613;BME280;15036;48.094;-1.690;2022-07-06T02:37:45;102207.47;;;21.07;58.12
27613;BME280;15036;48.094;-1.690;2022-07-06T02:40:11;102197.97;;;20.96;58.08
27613;BME280;15036;48.094;-1.690;2022-07-06T02:42:36;102198.34;;;21.00;57.75
27613;BME280;15036;48.094;-1.690;2022-07-06T02:45:02;102199.03;;;20.59;59.02
27613;BME280;15036;48.094;-1.690;2022-07-06T02:47:28;102203.19;;;20.68;58.34
27613;BME280;15036;48.094;-1.690;2022-07-06T02:49:53;102202.25;;;20.38;59.22
27613;BME280;15036;48.094;-1.690;2022-07-06T02:52:19;102193.41;;;20.47;58.72
27613;BME280;15036;48.094;-1.690;2022-07-06T02:54:45;102192.59;;;20.40;59.51
27613;BME280;15036;48.094;-1.690;2022-07-06T02:57:10;102198.16;;;20.40;59.44
27613;BME280;15036;48.094;-1.690;2022-07-06T02:59:36;102189.56;;;20.66;58.63
27613;BME280;15036;48.094;-1.690;2022-07-06T03:02:03;102181.50;;;20.22;60.06
27613;BME280;15036;48.094;-1.690;2022-07-06T03:04:29;102190.22;;;19.70;61.20
27613;BME280;15036;48.094;-1.690;2022-07-06T03:06:54;102181.63;;;19.78;61.00
27613;BME280;15036;48.094;-1.690;2022-07-06T03:09:20;102181.81;;;20.50;59.15
27613;BME280;15036;48.094;-1.690;2022-07-06T03:11:45;102180.81;;;20.45;59.19
27613;BME280;15036;48.094;-1.690;2022-07-06T03:14:11;102181.34;;;20.11;59.83
27613;BME280;15036;48.094;-1.690;2022-07-06T03:16:36;102174.63;;;20.25;59.05
27613;BME280;15036;48.094;-1.690;2022-07-06T03:19:01;102179.88;;;19.83;60.76
27613;BME280;15036;48.094;-1.690;2022-07-06T03:21:27;102182.44;;;19.54;61.60
27613;BME280;15036;48.094;-1.690;2022-07-06T03:23:52;102181.34;;;20.11;59.77
27613;BME280;15036;48.094;-1.690;2022-07-06T03:26:18;102182.31;;;20.23;59.45
27613;BME280;15036;48.094;-1.690;2022-07-06T03:28:43;102190.25;;;20.44;59.06
27613;BME280;15036;48.094;-1.690;2022-07-06T03:31:08;102185.56;;;20.20;59.56
27613;BME280;15036;48.094;-1.690;2022-07-06T03:33:34;102196.31;;;20.52;58.62
27613;BME280;15036;48.094;-1.690;2022-07-06T03:35:59;102193.44;;;20.65;58.16
27613;BME280;15036;48.094;-1.690;2022-07-06T03:38:25;102192.94;;;20.68;58.15
27613;BME280;15036;48.094;-1.690;2022-07-06T03:40:50;102188.69;;;20.66;58.16
27613;BME280;15036;48.094;-1.690;2022-07-06T03:43:16;102194.59;;;20.58;58.33
27613;BME280;15036;48.094;-1.690;2022-07-06T03:45:41;102197.88;;;20.66;58.09
27613;BME280;15036;48.094;-1.690;2022-07-06T03:48:07;102200.94;;;20.58;58.41
27613;BME280;15036;48.094;-1.690;2022-07-06T03:50:32;102195.09;;;20.48;58.65
27613;BME280;15036;48.094;-1.690;2022-07-06T03:52:57;102197.44;;;20.69;58.22
27613;BME280;15036;48.094;-1.690;2022-07-06T03:55:23;102201.44;;;20.55;58.84
27613;BME280;15036;48.094;-1.690;2022-07-06T03:57:48;102200.56;;;20.55;58.64
27613;BME280;15036;48.094;-1.690;2022-07-06T04:00:14;102204.66;;;20.52;58.94
27613;BME280;15036;48.094;-1.690;2022-07-06T04:02:39;102202.81;;;20.64;58.38
27613;BME280;15036;48.094;-1.690;2022-07-06T04:05:05;102205.28;;;20.72;58.20
27613;BME280;15036;48.094;-1.690;2022-07-06T04:07:30;102201.88;;;20.52;58.65
27613;BME280;15036;48.094;-1.690;2022-07-06T04:09:56;102202.88;;;20.40;58.94
27613;BME280;15036;48.094;-1.690;2022-07-06T04:12:21;102205.56;;;20.46;58.82
27613;BME280;15036;48.094;-1.690;2022-07-06T04:14:47;102198.00;;;20.35;59.01
27613;BME280;15036;48.094;-1.690;2022-07-06T04:17:12;102207.50;;;20.46;58.63
27613;BME280;15036;48.094;-1.690;2022-07-06T04:19:56;102202.88;;;20.40;58.89
27613;BME280;15036;48.094;-1.690;2022-07-06T04:22:21;102216.16;;;20.56;58.39
27613;BME280;15036;48.094;-1.690;2022-07-06T04:24:47;102215.38;;;20.49;58.72
27613;BME280;15036;48.094;-1.690;2022-07-06T04:27:12;102216.38;;;20.54;58.24
27613;BME280;15036;48.094;-1.690;2022-07-06T04:29:37;102214.75;;;20.47;58.79
27613;BME280;15036;48.094;-1.690;2022-07-06T04:32:03;102216.34;;;20.36;58.85
27613;BME280;15036;48.094;-1.690;2022-07-06T04:34:29;102224.38;;;20.44;58.77
27613;BME280;15036;48.094;-1.690;2022-07-06T04:36:54;102222.16;;;20.28;59.37
27613;BME280;15036;48.094;-1.690;2022-07-06T04:39:19;102214.75;;;20.47;58.91
27613;BME280;15036;48.094;-1.690;2022-07-06T04:41:45;102220.91;;;20.49;58.85
27613;BME280;15036;48.094;-1.690;2022-07-06T04:44:10;102225.88;;;20.65;58.61
27613;BME280;15036;48.094;-1.690;2022-07-06T04:46:36;102221.38;;;20.46;58.86
27613;BME280;15036;48.094;-1.690;2022-07-06T04:49:01;102229.88;;;20.69;58.56
27613;BME280;15036;48.094;-1.690;2022-07-06T04:51:26;102224.78;;;20.48;59.09
27613;BME280;15036;48.094;-1.690;2022-07-06T04:53:52;102226.31;;;20.44;58.73
27613;BME280;15036;48.094;-1.690;2022-07-06T04:56:17;102230.03;;;20.74;58.62
27613;BME280;15036;48.094;-1.690;2022-07-06T04:58:43;102226.81;;;20.77;58.45
27613;BME280;15036;48.094;-1.690;2022-07-06T05:01:08;102224.41;;;20.62;58.65
27613;BME280;15036;48.094;-1.690;2022-07-06T05:03:34;102226.84;;;20.52;59.01
27613;BME280;15036;48.094;-1.690;2022-07-06T05:06:06;102223.00;;;20.53;58.79
27613;BME280;15036;48.094;-1.690;2022-07-06T05:08:32;102228.25;;;20.61;58.69
27613;BME280;15036;48.094;-1.690;2022-07-06T05:10:57;102225.22;;;20.45;59.11
27613;BME280;15036;48.094;-1.690;2022-07-06T05:13:23;102221.19;;;20.41;59.33
27613;BME280;15036;48.094;-1.690;2022-07-06T05:15:48;102225.47;;;20.19;59.94
27613;BME280;15036;48.094;-1.690;2022-07-06T05:18:14;102231.56;;;20.27;59.80
27613;BME280;15036;48.094;-1.690;2022-07-06T05:20:39;102225.41;;;20.25;60.01
27613;BME280;15036;48.094;-1.690;2022-07-06T05:23:05;102222.06;;;20.41;59.56
27613;BME280;15036;48.094;-1.690;2022-07-06T05:25:30;102226.22;;;20.50;59.38
27613;BME280;15036;48.094;-1.690;2022-07-06T05:27:56;102228.50;;;20.60;59.16
27613;BME280;15036;48.094;-1.690;2022-07-06T05:30:22;102225.19;;;20.27;59.81
27613;BME280;15036;48.094;-1.690;2022-07-06T05:32:47;102230.44;;;20.10;60.64
27613;BME280;15036;48.094;-1.690;2022-07-06T05:35:12;102231.28;;;20.35;60.21
27613;BME280;15036;48.094;-1.690;2022-07-06T05:37:38;102226.69;;;20.47;59.83
27613;BME280;15036;48.094;-1.690;2022-07-06T05:40:04;102230.81;;;20.38;60.12
27613;BME280;15036;48.094;-1.690;2022-07-06T05:42:29;102222.25;;;20.64;59.87
27613;BME280;15036;48.094;-1.690;2022-07-06T05:44:55;102234.03;;;20.78;59.40
27613;BME280;15036;48.094;-1.690;2022-07-06T05:47:22;102230.44;;;20.78;59.36
27613;BME280;15036;48.094;-1.690;2022-07-06T05:50:06;102230.03;;;20.92;59.25
27613;BME280;15036;48.094;-1.690;2022-07-06T05:52:39;102237.91;;;20.77;59.57
27613;BME280;15036;48.094;-1.690;2022-07-06T05:55:05;102238.66;;;21.09;59.10
27613;BME280;15036;48.094;-1.690;2022-07-06T05:57:31;102246.19;;;21.02;58.83
27613;BME280;15036;48.094;-1.690;2022-07-06T05:59:56;102242.72;;;21.24;58.24
27613;BME280;15036;48.094;-1.690;2022-07-06T06:02:21;102249.88;;;21.32;58.52
27613;BME280;15036;48.094;-1.690;2022-07-06T06:04:47;102248.25;;;21.42;58.31
27613;BME280;15036;48.094;-1.690;2022-07-06T06:07:12;102250.69;;;21.21;59.23
27613;BME280;15036;48.094;-1.690;2022-07-06T06:09:37;102240.47;;;21.33;58.82
27613;BME280;15036;48.094;-1.690;2022-07-06T06:12:03;102249.03;;;21.61;58.41
27613;BME280;15036;48.094;-1.690;2022-07-06T06:14:29;102245.56;;;21.66;58.23
27613;BME280;15036;48.094;-1.690;2022-07-06T06:16:54;102242.22;;;21.75;58.12
27613;BME280;15036;48.094;-1.690;2022-07-06T06:19:19;102242.34;;;21.80;57.83
27613;BME280;15036;48.094;-1.690;2022-07-06T06:21:45;102239.75;;;21.97;57.74
27613;BME280;15036;48.094;-1.690;2022-07-06T06:24:11;102246.44;;;21.96;57.91
27613;BME280;15036;48.094;-1.690;2022-07-06T06:26:36;102245.81;;;21.94;57.84
27613;BME280;15036;48.094;-1.690;2022-07-06T06:29:02;102244.59;;;21.90;57.95
27613;BME280;15036;48.094;-1.690;2022-07-06T06:31:27;102233.28;;;22.14;57.12
27613;BME280;15036;48.094;-1.690;2022-07-06T06:33:53;102228.56;;;22.26;56.87
27613;BME280;15036;48.094;-1.690;2022-07-06T06:36:18;102231.13;;;22.51;56.71
27613;BME280;15036;48.094;-1.690;2022-07-06T06:38:44;102237.06;;;22.55;56.48
27613;BME280;15036;48.094;-1.690;2022-07-06T06:41:09;102240.59;;;22.50;56.57
27613;BME280;15036;48.094;-1.690;2022-07-06T06:43:35;102238.75;;;22.56;56.62
27613;BME280;15036;48.094;-1.690;2022-07-06T06:46:00;102236.88;;;22.68;56.24
27613;BME280;15036;48.094;-1.690;2022-07-06T06:48:25;102235.84;;;22.39;57.22
27613;BME280;15036;48.094;-1.690;2022-07-06T06:50:51;102232.00;;;22.63;56.41
27613;BME280;15036;48.094;-1.690;2022-07-06T06:53:16;102230.41;;;22.79;56.09
27613;BME280;15036;48.094;-1.690;2022-07-06T06:55:41;102241.41;;;22.97;55.65
27613;BME280;15036;48.094;-1.690;2022-07-06T06:58:07;102244.09;;;23.03;55.52
27613;BME280;15036;48.094;-1.690;2022-07-06T07:00:33;102247.53;;;23.22;55.13
27613;BME280;15036;48.094;-1.690;2022-07-06T07:02:58;102246.97;;;23.08;54.69
27613;BME280;15036;48.094;-1.690;2022-07-06T07:05:24;102242.81;;;23.34;53.77
27613;BME280;15036;48.094;-1.690;2022-07-06T07:07:49;102249.25;;;23.23;54.10
27613;BME280;15036;48.094;-1.690;2022-07-06T07:10:14;102246.44;;;23.35;53.84
27613;BME280;15036;48.094;-1.690;2022-07-06T07:12:47;102247.03;;;23.37;53.81
27613;BME280;15036;48.094;-1.690;2022-07-06T07:15:13;102244.06;;;23.55;53.56
27613;BME280;15036;48.094;-1.690;2022-07-06T07:17:39;102251.31;;;23.56;53.01
27613;BME280;15036;48.094;-1.690;2022-07-06T07:20:06;102255.97;;;23.78;52.57
27613;BME280;15036;48.094;-1.690;2022-07-06T07:22:31;102246.00;;;23.82;52.13
27613;BME280;15036;48.094;-1.690;2022-07-06T07:24:57;102247.19;;;23.86;52.21
27613;BME280;15036;48.094;-1.690;2022-07-06T07:27:24;102253.78;;;23.97;51.71
27613;BME280;15036;48.094;-1.690;2022-07-06T07:29:49;102246.22;;;24.09;51.36
27613;BME280;15036;48.094;-1.690;2022-07-06T07:32:15;102250.31;;;24.18;51.20
27613;BME280;15036;48.094;-1.690;2022-07-06T07:34:40;102247.94;;;24.27;50.93
27613;BME280;15036;48.094;-1.690;2022-07-06T07:37:05;102250.41;;;24.40;50.26
27613;BME280;15036;48.094;-1.690;2022-07-06T07:39:31;102260.03;;;24.16;50.54
27613;BME280;15036;48.094;-1.690;2022-07-06T07:41:56;102252.16;;;24.29;50.33
27613;BME280;15036;48.094;-1.690;2022-07-06T07:44:22;102258.25;;;24.43;49.68
27613;BME280;15036;48.094;-1.690;2022-07-06T07:46:47;102255.63;;;24.53;49.17
27613;BME280;15036;48.094;-1.690;2022-07-06T07:49:13;102251.16;;;24.52;48.67
27613;BME280;15036;48.094;-1.690;2022-07-06T07:51:39;102254.88;;;24.57;48.66
27613;BME280;15036;48.094;-1.690;2022-07-06T07:54:04;102252.84;;;24.53;48.79
27613;BME280;15036;48.094;-1.690;2022-07-06T07:56:31;102251.97;;;24.85;48.18
27613;BME280;15036;48.094;-1.690;2022-07-06T07:58:56;102253.59;;;24.81;48.09
27613;BME280;15036;48.094;-1.690;2022-07-06T08:01:21;102250.75;;;24.98;47.86
27613;BME280;15036;48.094;-1.690;2022-07-06T08:03:47;102246.28;;;24.97;47.05
27613;BME280;15036;48.094;-1.690;2022-07-06T08:06:12;102248.97;;;24.92;46.86
27613;BME280;15036;48.094;-1.690;2022-07-06T08:08:37;102243.94;;;25.32;46.49
27613;BME280;15036;48.094;-1.690;2022-07-06T08:11:03;102252.31;;;25.32;46.02
27613;BME280;15036;48.094;-1.690;2022-07-06T08:13:28;102241.16;;;24.72;46.86
27613;BME280;15036;48.094;-1.690;2022-07-06T08:15:54;102247.47;;;25.23;45.99
27613;BME280;15036;48.094;-1.690;2022-07-06T08:18:19;102252.13;;;25.17;46.04
27613;BME280;15036;48.094;-1.690;2022-07-06T08:20:44;102245.31;;;25.51;45.55
27613;BME280;15036;48.094;-1.690;2022-07-06T08:23:10;102250.31;;;25.49;45.37
27613;BME280;15036;48.094;-1.690;2022-07-06T08:25:35;102251.91;;;25.02;45.68
27613;BME280;15036;48.094;-1.690;2022-07-06T08:28:00;102257.31;;;25.09;44.75
27613;BME280;15036;48.094;-1.690;2022-07-06T08:30:26;102254.94;;;25.60;44.42
27613;BME280;15036;48.094;-1.690;2022-07-06T08:32:51;102249.56;;;25.81;43.91
27613;BME280;15036;48.094;-1.690;2022-07-06T08:35:17;102252.78;;;25.67;44.23
27613;BME280;15036;48.094;-1.690;2022-07-06T08:37:43;102247.63;;;25.59;43.92
27613;BME280;15036;48.094;-1.690;2022-07-06T08:40:09;102250.09;;;25.77;43.47
27613;BME280;15036;48.094;-1.690;2022-07-06T08:42:35;102242.78;;;25.50;44.43
27613;BME280;15036;48.094;-1.690;2022-07-06T08:45:03;102230.66;;;26.19;42.98
27613;BME280;15036;48.094;-1.690;2022-07-06T08:47:32;102236.88;;;26.00;42.71
27613;BME280;15036;48.094;-1.690;2022-07-06T08:50:01;102232.81;;;26.44;42.26
27613;BME280;15036;48.094;-1.690;2022-07-06T08:52:27;102223.66;;;26.58;41.48
27613;BME280;15036;48.094;-1.690;2022-07-06T08:54:53;102219.88;;;26.75;41.45
27613;BME280;15036;48.094;-1.690;2022-07-06T08:57:19;102224.72;;;26.89;41.27
27613;BME280;15036;48.094;-1.690;2022-07-06T08:59:44;102232.22;;;27.25;40.23
27613;BME280;15036;48.094;-1.690;2022-07-06T09:02:10;102229.41;;;27.25;39.68
27613;BME280;15036;48.094;-1.690;2022-07-06T09:04:37;102227.09;;;27.12;38.90
27613;BME280;15036;48.094;-1.690;2022-07-06T09:07:03;102232.13;;;27.82;37.77
27613;BME280;15036;48.094;-1.690;2022-07-06T09:09:30;102221.78;;;28.03;37.53
27613;BME280;15036;48.094;-1.690;2022-07-06T09:11:59;102232.97;;;27.88;37.71
27613;BME280;15036;48.094;-1.690;2022-07-06T09:14:24;102227.03;;;27.59;38.14
27613;BME280;15036;48.094;-1.690;2022-07-06T09:17:02;102227.91;;;27.75;38.01
27613;BME280;15036;48.094;-1.690;2022-07-06T09:19:30;102224.31;;;28.40;36.94
27613;BME280;15036;48.094;-1.690;2022-07-06T09:21:55;102235.81;;;28.03;36.78
27613;BME280;15036;48.094;-1.690;2022-07-06T09:24:21;102237.53;;;28.14;36.49
27613;BME280;15036;48.094;-1.690;2022-07-06T09:26:47;102240.81;;;27.76;36.32
27613;BME280;15036;48.094;-1.690;2022-07-06T09:29:13;102244.53;;;27.96;36.85
27613;BME280;15036;48.094;-1.690;2022-07-06T09:31:39;102244.19;;;27.88;36.46
27613;BME280;15036;48.094;-1.690;2022-07-06T09:34:09;102248.03;;;27.47;37.18
27613;BME280;15036;48.094;-1.690;2022-07-06T09:36:45;102249.22;;;26.67;38.24
27613;BME280;15036;48.094;-1.690;2022-07-06T09:41:51;102248.94;;;27.67;36.63
27613;BME280;15036;48.094;-1.690;2022-07-06T09:44:24;102253.53;;;28.44;35.97
27613;BME280;15036;48.094;-1.690;2022-07-06T09:46:51;102248.97;;;28.93;34.81
27613;BME280;15036;48.094;-1.690;2022-07-06T09:49:18;102260.00;;;28.49;34.58
27613;BME280;15036;48.094;-1.690;2022-07-06T09:51:45;102263.13;;;28.58;34.20
27613;BME280;15036;48.094;-1.690;2022-07-06T09:54:11;102268.41;;;28.04;35.19
27613;BME280;15036;48.094;-1.690;2022-07-06T09:56:41;102261.69;;;28.70;34.66
27613;BME280;15036;48.094;-1.690;2022-07-06T09:59:15;102269.00;;;28.36;35.21
27613;BME280;15036;48.094;-1.690;2022-07-06T10:01:41;102261.97;;;28.44;34.53
27613;BME280;15036;48.094;-1.690;2022-07-06T10:04:08;102259.69;;;28.41;35.04
27613;BME280;15036;48.094;-1.690;2022-07-06T10:06:34;102253.63;;;27.52;35.77
27613;BME280;15036;48.094;-1.690;2022-07-06T10:09:00;102236.38;;;28.35;34.81
27613;BME280;15036;48.094;-1.690;2022-07-06T10:11:28;102245.38;;;28.52;34.38
27613;BME280;15036;48.094;-1.690;2022-07-06T10:13:56;102241.41;;;28.88;33.39
27613;BME280;15036;48.094;-1.690;2022-07-06T10:16:25;102247.56;;;29.00;33.04
27613;BME280;15036;48.094;-1.690;2022-07-06T10:18:51;102243.03;;;29.15;32.45
27613;BME280;15036;48.094;-1.690;2022-07-06T10:21:22;102232.38;;;29.65;32.14
27613;BME280;15036;48.094;-1.690;2022-07-06T10:23:49;102239.91;;;29.80;31.85
27613;BME280;15036;48.094;-1.690;2022-07-06T10:26:16;102250.00;;;29.91;31.53
27613;BME280;15036;48.094;-1.690;2022-07-06T10:28:42;102243.00;;;30.22;31.66
27613;BME280;15036;48.094;-1.690;2022-07-06T10:31:08;102245.19;;;29.43;33.27
27613;BME280;15036;48.094;-1.690;2022-07-06T10:33:35;102236.69;;;28.59;34.33
27613;BME280;15036;48.094;-1.690;2022-07-06T10:36:01;102240.53;;;29.03;33.51
27613;BME280;15036;48.094;-1.690;2022-07-06T10:38:32;102240.91;;;28.56;34.16
27613;BME280;15036;48.094;-1.690;2022-07-06T10:41:04;102240.88;;;28.71;33.88
27613;BME280;15036;48.094;-1.690;2022-07-06T10:43:47;102241.34;;;29.24;32.04
27613;BME280;15036;48.094;-1.690;2022-07-06T10:46:15;102238.53;;;29.67;31.39
27613;BME280;15036;48.094;-1.690;2022-07-06T10:48:43;102229.81;;;29.05;32.62
27613;BME280;15036;48.094;-1.690;2022-07-06T10:51:22;102224.59;;;28.48;33.42
27613;BME280;15036;48.094;-1.690;2022-07-06T10:54:04;102230.78;;;28.60;33.66
27613;BME280;15036;48.094;-1.690;2022-07-06T10:56:37;102241.47;;;28.63;33.23
27613;BME280;15036;48.094;-1.690;2022-07-06T10:59:09;102245.09;;;28.69;32.83
27613;BME280;15036;48.094;-1.690;2022-07-06T11:01:35;102241.16;;;28.65;33.38
27613;BME280;15036;48.094;-1.690;2022-07-06T11:06:28;102246.22;;;28.38;32.97
27613;BME280;15036;48.094;-1.690;2022-07-06T11:11:25;102234.22;;;29.36;31.39
27613;BME280;15036;48.094;-1.690;2022-07-06T11:13:55;102229.75;;;29.84;31.74
27613;BME280;15036;48.094;-1.690;2022-07-06T11:16:24;102216.16;;;29.96;30.59
27613;BME280;15036;48.094;-1.690;2022-07-06T11:19:10;102213.03;;;30.36;29.85
27613;BME280;15036;48.094;-1.690;2022-07-06T11:24:01;102230.22;;;30.35;30.88
27613;BME280;15036;48.094;-1.690;2022-07-06T11:26:26;102213.09;;;30.55;29.54
27613;BME280;15036;48.094;-1.690;2022-07-06T11:28:53;102200.13;;;31.06;28.95
27613;BME280;15036;48.094;-1.690;2022-07-06T11:31:18;102202.47;;;30.47;30.62
27613;BME280;15036;48.094;-1.690;2022-07-06T11:33:47;102203.75;;;31.12;29.53
27613;BME280;15036;48.094;-1.690;2022-07-06T11:38:39;102194.91;;;31.42;29.27
27613;BME280;15036;48.094;-1.690;2022-07-06T11:41:04;102194.31;;;31.21;29.32
27613;BME280;15036;48.094;-1.690;2022-07-06T11:43:30;102191.88;;;30.91;29.67
27613;BME280;15036;48.094;-1.690;2022-07-06T11:45:55;102205.78;;;29.43;31.68
27613;BME280;15036;48.094;-1.690;2022-07-06T11:48:20;102211.31;;;29.58;30.40
27613;BME280;15036;48.094;-1.690;2022-07-06T11:53:25;102189.91;;;30.01;30.92
27613;BME280;15036;48.094;-1.690;2022-07-06T11:55:50;102189.66;;;29.97;30.85
27613;BME280;15036;48.094;-1.690;2022-07-06T11:58:20;102186.47;;;30.95;29.68
27613;BME280;15036;48.094;-1.690;2022-07-06T12:01:06;102182.59;;;30.33;30.57
27613;BME280;15036;48.094;-1.690;2022-07-06T12:03:32;102187.22;;;30.76;30.12
27613;BME280;15036;48.094;-1.690;2022-07-06T12:05:58;102189.78;;;31.02;29.35
27613;BME280;15036;48.094;-1.690;2022-07-06T12:08:24;102185.00;;;31.44;28.97
27613;BME280;15036;48.094;-1.690;2022-07-06T12:10:49;102190.19;;;30.38;30.40
27613;BME280;15036;48.094;-1.690;2022-07-06T12:13:14;102196.38;;;30.63;29.12
27613;BME280;15036;48.094;-1.690;2022-07-06T12:15:40;102203.63;;;29.68;30.69
27613;BME280;15036;48.094;-1.690;2022-07-06T12:18:05;102198.59;;;30.95;29.08
27613;BME280;15036;48.094;-1.690;2022-07-06T12:20:31;102199.72;;;30.94;29.30
27613;BME280;15036;48.094;-1.690;2022-07-06T12:23:06;102189.28;;;31.79;28.11
27613;BME280;15036;48.094;-1.690;2022-07-06T12:25:34;102189.38;;;31.93;28.25
27613;BME280;15036;48.094;-1.690;2022-07-06T12:27:59;102182.31;;;31.11;29.19
27613;BME280;15036;48.094;-1.690;2022-07-06T12:30:26;102181.94;;;30.41;30.26
27613;BME280;15036;48.094;-1.690;2022-07-06T12:33:13;102184.94;;;31.02;29.21
27613;BME280;15036;48.094;-1.690;2022-07-06T12:35:41;102179.09;;;31.78;28.41
27613;BME280;15036;48.094;-1.690;2022-07-06T12:38:06;102178.38;;;32.83;27.06
27613;BME280;15036;48.094;-1.690;2022-07-06T12:40:32;102196.72;;;32.07;27.86
27613;BME280;15036;48.094;-1.690;2022-07-06T12:42:57;102178.19;;;32.01;27.95
27613;BME280;15036;48.094;-1.690;2022-07-06T12:45:30;102178.44;;;33.10;26.89
27613;BME280;15036;48.094;-1.690;2022-07-06T12:48:03;102174.16;;;32.53;27.15
27613;BME280;15036;48.094;-1.690;2022-07-06T12:50:35;102182.25;;;32.87;27.13
27613;BME280;15036;48.094;-1.690;2022-07-06T12:53:02;102183.84;;;33.34;26.16
27613;BME280;15036;48.094;-1.690;2022-07-06T12:55:29;102187.03;;;33.90;25.28